Time;durP1;ratioP1;P1;durP2;ratioP2;P2;SDS_P1;SDS_P2;PMS_P1;PMS_P2;Temp;Humidity;BMP_temperature;BMP_pressure;BME280_temperature;BME280_humidity;BME280_pressure;Samples;Min_cycle;Max_cycle;Signal;HPM_P1;HPM_P2
2023/01/31 00:01:21;;;;;;;9.35;3.72;;;;;;;-0.47;67.91;98120.16;6184881;23;20044;-78
2023/01/31 00:03:53;;;;;;;6.72;3.92;;;;;;;-0.41;67.98;98132.13;6109399;23;20024;-77
2023/01/31 00:06:23;;;;;;;9.75;4.57;;;;;;;-0.46;67.19;98118.47;6158344;23;20358;-77
2023/01/31 00:08:50;;;;;;;7.18;4.35;;;;;;;-0.49;67.19;98115.88;6184818;23;20024;-77
2023/01/31 00:11:18;;;;;;;8.15;4.07;;;;;;;-0.53;67.77;98117.56;6158559;23;20079;-78
2023/01/31 00:13:45;;;;;;;10.98;4.32;;;;;;;-0.50;67.88;98121.81;6158020;23;20067;-77
2023/01/31 00:16:12;;;;;;;9.70;3.95;;;;;;;-0.78;67.57;98078.16;6184937;23;20071;-78
2023/01/31 00:18:39;;;;;;;7.38;4.35;;;;;;;-0.69;67.99;98097.81;6158206;23;20459;-78
2023/01/31 00:21:08;;;;;;;7.63;3.78;;;;;;;-0.54;67.59;98120.06;6133684;23;20021;-77
2023/01/31 00:23:33;;;;;;;5.97;3.83;;;;;;;-0.58;68.04;98116.66;6184560;23;20044;-77
2023/01/31 00:26:16;;;;;;;6.38;3.60;;;;;;;-0.57;67.88;98115.81;6133833;23;20017;-78
2023/01/31 00:28:43;;;;;;;8.77;4.40;;;;;;;-0.68;68.09;98092.72;6158174;23;20021;-78
2023/01/31 00:31:11;;;;;;;7.60;4.30;;;;;;;-0.58;67.79;98116.66;6158170;23;20358;-78
2023/01/31 00:33:40;;;;;;;11.43;5.03;;;;;;;-0.58;67.82;98119.19;6184316;23;20028;-78
2023/01/31 00:36:09;;;;;;;8.88;4.43;;;;;;;-0.57;68.17;98128.59;6158720;23;20049;-79
2023/01/31 00:38:35;;;;;;;8.65;4.20;;;;;;;-0.96;67.67;98074.56;6183829;23;20045;-77
2023/01/31 00:41:03;;;;;;;11.40;4.63;;;;;;;-0.68;67.58;98120.81;6108527;23;20017;-76
2023/01/31 00:43:30;;;;;;;9.50;4.47;;;;;;;-0.61;67.97;98120.03;6132157;23;20021;-77
2023/01/31 00:45:57;;;;;;;7.13;3.95;;;;;;;-0.58;67.81;98120.91;6133683;23;20099;-77
2023/01/31 00:48:24;;;;;;;7.95;4.60;;;;;;;-0.65;67.73;98102.97;6157211;23;20016;-77
2023/01/31 00:50:50;;;;;;;8.32;4.45;;;;;;;-0.49;68.43;98126.09;6184916;23;20113;-78
2023/01/31 00:53:22;;;;;;;7.72;4.65;;;;;;;-0.61;67.76;98116.63;6184474;23;20144;-78
2023/01/31 00:55:53;;;;;;;8.52;4.25;;;;;;;-0.62;67.79;98115.78;6158050;23;20024;-77
2023/01/31 00:58:20;;;;;;;6.82;4.38;;;;;;;-0.66;68.41;98105.53;6108074;23;20044;-77
2023/01/31 01:00:47;;;;;;;8.90;3.80;;;;;;;-0.52;67.36;98137.16;6133623;23;20016;-76
2023/01/31 01:03:14;;;;;;;9.50;4.40;;;;;;;-0.53;68.41;98121.78;6132796;23;20043;-78
2023/01/31 01:05:40;;;;;;;8.70;4.45;;;;;;;-0.51;68.20;98115.00;6109050;23;20025;-77
2023/01/31 01:08:06;;;;;;;7.68;4.85;;;;;;;-0.39;67.29;98144.91;6157770;23;20079;-78
2023/01/31 01:10:33;;;;;;;6.80;4.22;;;;;;;-0.53;68.06;98121.78;6109047;23;20013;-78
2023/01/31 01:13:00;;;;;;;6.63;4.28;;;;;;;-0.50;67.39;98132.91;6157121;23;20386;-78
2023/01/31 01:15:27;;;;;;;7.65;4.57;;;;;;;-0.51;68.07;98138.00;6184368;23;20518;-78
2023/01/31 01:17:55;;;;;;;7.53;4.32;;;;;;;-0.42;67.99;98145.75;6182963;23;20025;-78
2023/01/31 01:20:21;;;;;;;8.38;4.47;;;;;;;-0.41;67.79;98144.91;6156471;23;20028;-78
2023/01/31 01:22:47;;;;;;;9.90;4.53;;;;;;;-0.45;67.52;98138.06;6132011;23;20070;-78
2023/01/31 01:25:13;;;;;;;7.32;4.18;;;;;;;-0.32;68.07;98159.47;6157168;23;20048;-77
2023/01/31 01:27:39;;;;;;;9.68;5.10;;;;;;;-0.37;67.30;98146.66;6132536;23;20021;-77
2023/01/31 01:30:06;;;;;;;7.25;4.75;;;;;;;-0.41;67.46;98150.03;6157301;23;20447;-77
2023/01/31 01:32:33;;;;;;;7.22;4.32;;;;;;;-0.39;67.19;98148.34;6108647;23;20021;-78
2023/01/31 01:34:59;;;;;;;8.88;4.38;;;;;;;-0.48;67.48;98122.69;6157566;23;20123;-79
2023/01/31 01:37:25;;;;;;;8.18;4.25;;;;;;;-0.45;67.44;98135.50;6183423;23;20454;-77
2023/01/31 01:39:52;;;;;;;10.20;4.55;;;;;;;-0.41;67.92;98147.47;6183913;23;20057;-77
2023/01/31 01:42:22;;;;;;;7.72;4.35;;;;;;;-0.46;68.08;98141.47;6157178;23;20016;-77
2023/01/31 01:44:55;;;;;;;7.35;4.63;;;;;;;-0.39;67.41;98147.47;6157479;23;20027;-78
2023/01/31 01:47:45;;;;;;;7.00;4.32;;;;;;;-0.36;68.16;98148.38;6183374;23;20048;-78
2023/01/31 01:50:32;;;;;;;7.60;4.18;;;;;;;-0.43;67.39;98143.16;6109360;23;20013;-77
2023/01/31 01:53:10;;;;;;;9.48;4.30;;;;;;;-0.45;67.77;98135.50;6158558;23;20458;-79
2023/01/31 01:55:50;;;;;;;6.60;3.78;;;;;;;-0.43;68.00;98140.63;6158672;23;20121;-78
2023/01/31 01:58:25;;;;;;;9.43;4.55;;;;;;;-0.45;68.15;98145.72;6135396;23;20029;-78
2023/01/31 02:00:53;;;;;;;6.93;4.18;;;;;;;-0.37;68.04;98149.22;6184074;23;20017;-78
2023/01/31 02:03:19;;;;;;;8.10;4.68;;;;;;;-0.38;67.44;98146.63;6157675;23;20078;-77
2023/01/31 02:05:50;;;;;;;10.27;4.40;;;;;;;-0.34;67.44;98146.69;6132007;23;20459;-78
2023/01/31 02:08:19;;;;;;;7.55;4.25;;;;;;;-0.48;67.91;98126.13;6157318;23;20016;-78
2023/01/31 02:11:03;;;;;;;7.25;4.15;;;;;;;-0.27;67.53;98160.38;6157112;23;20099;-78
2023/01/31 02:13:30;;;;;;;10.60;4.63;;;;;;;-0.33;67.27;98140.72;6183863;23;20017;-78
2023/01/31 02:15:57;;;;;;;9.45;5.75;;;;;;;-0.42;67.04;98120.19;6108650;23;20348;-78
2023/01/31 02:18:24;;;;;;;7.85;4.22;;;;;;;-0.27;67.67;98149.28;6152444;23;20021;-78
2023/01/31 02:21:12;;;;;;;14.23;5.18;;;;;;;-0.25;67.21;98156.13;6156814;23;20025;-77
2023/01/31 02:24:06;;;;;;;7.75;4.95;;;;;;;-0.23;66.92;98154.44;6160772;23;20028;-78
2023/01/31 02:27:03;;;;;;;7.80;4.50;;;;;;;-0.26;67.92;98148.44;6135348;23;20099;-77
2023/01/31 02:30:15;;;;;;;10.80;4.47;;;;;;;-0.31;67.27;98131.34;6158865;23;20047;-78
2023/01/31 02:33:00;;;;;;;9.20;4.50;;;;;;;-0.19;67.02;98142.53;6134751;23;20028;-77
2023/01/31 02:35:55;;;;;;;8.70;4.50;;;;;;;-0.27;67.17;98128.81;6133899;23;20027;-78
2023/01/31 02:38:53;;;;;;;9.73;5.07;;;;;;;-0.18;67.74;98152.75;6158308;23;20072;-79
2023/01/31 02:41:39;;;;;;;7.85;4.15;;;;;;;-0.20;67.48;98138.25;6158710;23;20020;-78
2023/01/31 02:47:20;;;;;;;8.57;4.40;;;;;;;-0.22;66.74;98140.78;6158961;23;20017;-78
2023/01/31 02:49:55;;;;;;;11.20;5.03;;;;;;;-0.31;66.99;98126.25;6134117;23;20013;-79
2023/01/31 02:52:27;;;;;;;8.63;4.88;;;;;;;-0.22;67.85;98145.06;6134304;23;20079;-78
2023/01/31 02:58:15;;;;;;;7.47;4.30;;;;;;;-0.38;67.91;98124.50;6068093;23;20021;-77
2023/01/31 03:00:44;;;;;;;8.30;4.45;;;;;;;-0.23;67.58;98135.69;6158450;23;20017;-78
2023/01/31 03:03:23;;;;;;;11.32;4.82;;;;;;;-0.20;67.50;98133.16;6134675;23;20016;-78
2023/01/31 03:06:33;;;;;;;9.75;5.22;;;;;;;-0.20;66.80;98145.94;6159688;23;20023;-77
2023/01/31 03:09:05;;;;;;;8.30;4.82;;;;;;;-0.23;66.81;98130.56;6159797;23;20013;-78
2023/01/31 03:11:45;;;;;;;;;;;;;;;-0.20;67.66;98128.03;6187107;23;20455;-78
2023/01/31 03:14:26;;;;;;;8.27;4.45;;;;;;;-0.40;66.59;98113.41;6134872;23;19987;-77
2023/01/31 03:19:56;;;;;;;11.57;4.88;;;;;;;-0.43;66.96;98110.81;6133930;23;20020;-79
2023/01/31 03:22:30;;;;;;;10.20;4.90;;;;;;;-0.27;67.83;98132.25;6159971;23;20024;-77
2023/01/31 03:24:59;;;;;;;13.30;5.30;;;;;;;-0.20;67.60;98134.00;6160263;23;20051;-78
2023/01/31 03:27:26;;;;;;;12.27;5.45;;;;;;;-0.21;67.67;98141.66;6135875;23;20105;-78
2023/01/31 03:30:00;;;;;;;8.07;4.60;;;;;;;-0.34;67.69;98128.78;6134733;23;20088;-76
2023/01/31 03:32:34;;;;;;;9.13;4.88;;;;;;;-0.62;67.29;98097.00;6133913;23;20028;-78
2023/01/31 03:35:00;;;;;;;6.93;4.55;;;;;;;-0.35;67.61;98136.44;6184753;23;20024;-76
2023/01/31 03:37:56;;;;;;;10.73;5.05;;;;;;;-0.42;67.58;98132.09;6161321;23;20075;-77
2023/01/31 03:40:55;;;;;;;8.30;4.60;;;;;;;-0.23;67.49;98163.81;6187035;23;20072;-76
2023/01/31 03:43:38;;;;;;;9.43;5.13;;;;;;;-0.21;68.02;98162.13;6134818;23;20104;-79
2023/01/31 03:46:20;;;;;;;13.27;5.50;;;;;;;-0.27;67.18;98156.94;6159247;23;20108;-77
2023/01/31 03:48:51;;;;;;;8.73;4.93;;;;;;;-0.22;67.27;98158.69;6135445;23;20020;-77
2023/01/31 03:51:26;;;;;;;8.50;4.75;;;;;;;-0.32;67.33;98144.97;6134055;23;20017;-78
2023/01/31 03:53:58;;;;;;;10.60;5.40;;;;;;;-0.22;67.33;98175.75;6160331;23;20047;-78
2023/01/31 03:56:31;;;;;;;8.88;5.25;;;;;;;-0.37;67.54;98151.78;6135254;23;20424;-77
2023/01/31 03:59:03;;;;;;;10.82;5.97;;;;;;;-0.28;67.07;98161.22;6138323;23;20017;-79
2023/01/31 04:01:38;;;;;;;10.88;6.00;;;;;;;-0.25;68.05;98163.81;6136152;23;20025;-77
2023/01/31 04:04:09;;;;;;;10.70;5.18;;;;;;;-0.26;67.73;98161.22;6134022;23;20129;-78
2023/01/31 04:06:36;;;;;;;9.82;5.18;;;;;;;-0.19;67.46;98174.06;6160405;23;20028;-79
2023/01/31 04:09:02;;;;;;;9.85;5.13;;;;;;;-0.20;67.67;98171.50;6135084;23;20052;-78
2023/01/31 04:11:28;;;;;;;10.25;5.40;;;;;;;-0.56;68.02;98109.00;6160921;23;20020;-79
2023/01/31 04:13:54;;;;;;;10.35;5.40;;;;;;;-0.41;67.36;98136.38;6159832;23;20096;-79
2023/01/31 04:16:20;;;;;;;10.57;5.55;;;;;;;-0.20;68.17;98179.19;6186152;23;20048;-78
2023/01/31 04:18:46;;;;;;;10.60;5.70;;;;;;;-0.43;67.71;98150.84;6154440;23;20368;-77
2023/01/31 04:21:14;;;;;;;10.32;5.80;;;;;;;-0.42;67.77;98148.31;6181302;23;20067;-79
2023/01/31 04:23:40;;;;;;;10.40;5.70;;;;;;;-0.65;67.75;98119.97;6185521;23;20042;-79
2023/01/31 04:26:06;;;;;;;9.73;5.20;;;;;;;-0.48;67.50;98154.22;6185875;23;20020;-78
2023/01/31 04:28:32;;;;;;;10.32;5.40;;;;;;;-0.39;67.91;98165.38;6159182;23;20327;-77
2023/01/31 04:30:59;;;;;;;12.25;5.70;;;;;;;-0.36;67.70;98163.72;6160768;23;20021;-80
2023/01/31 04:33:25;;;;;;;11.60;6.05;;;;;;;-0.39;67.86;98165.38;6160564;23;20017;-79
2023/01/31 04:35:51;;;;;;;9.65;5.50;;;;;;;-0.38;68.01;98173.06;6186706;23;20358;-80
2023/01/31 04:38:18;;;;;;;11.85;5.90;;;;;;;-0.28;68.48;98197.00;6160899;23;20458;-79
2023/01/31 04:40:43;;;;;;;10.43;5.65;;;;;;;-0.41;68.37;98179.81;6159881;23;20013;-81
2023/01/31 04:43:11;;;;;;;11.63;5.68;;;;;;;-0.32;67.78;98190.16;6160700;23;20056;-81
2023/01/31 04:45:37;;;;;;;10.77;5.05;;;;;;;-0.24;68.21;98205.56;6160444;23;20099;-79
2023/01/31 04:48:03;;;;;;;8.82;5.40;;;;;;;-0.21;67.52;98215.81;6161604;23;20021;-78
2023/01/31 04:50:29;;;;;;;9.35;5.13;;;;;;;-0.36;67.95;98189.28;6160833;23;20075;-79
2023/01/31 04:52:55;;;;;;;11.18;5.68;;;;;;;-0.24;68.11;98214.09;6187282;23;20044;-78
2023/01/31 04:55:21;;;;;;;11.20;5.70;;;;;;;-0.35;68.17;98198.66;6135193;23;20024;-79
2023/01/31 04:57:48;;;;;;;11.57;6.07;;;;;;;-0.29;68.26;98213.19;6135452;23;20017;-78
2023/01/31 05:00:14;;;;;;;13.32;5.88;;;;;;;-0.35;68.21;98200.34;6185758;23;20017;-77
2023/01/31 05:02:40;;;;;;;10.40;5.15;;;;;;;-0.37;68.36;98196.91;6186766;23;20027;-77
2023/01/31 05:05:07;;;;;;;11.70;5.65;;;;;;;-0.50;67.86;98183.16;6159408;23;20027;-77
2023/01/31 05:07:33;;;;;;;11.13;6.07;;;;;;;-0.43;68.41;98171.28;6186582;23;20044;-78
2023/01/31 05:09:59;;;;;;;9.95;5.53;;;;;;;-0.20;67.88;98209.84;6110368;23;20013;-77
2023/01/31 05:12:27;;;;;;;9.95;5.28;;;;;;;-0.46;68.56;98159.34;6159892;23;20403;-78
2023/01/31 05:15:01;;;;;;;9.95;5.03;;;;;;;-0.27;68.27;98197.84;6159239;23;20013;-79
2023/01/31 05:17:32;;;;;;;9.20;5.15;;;;;;;-0.29;68.33;98194.41;6135563;23;20021;-78
2023/01/31 05:19:59;;;;;;;10.15;5.57;;;;;;;-0.18;67.70;98214.13;6153863;23;20028;-78
2023/01/31 05:22:50;;;;;;;10.63;5.40;;;;;;;-0.15;67.97;98223.53;6159027;23;20021;-76
2023/01/31 05:25:16;;;;;;;12.88;5.55;;;;;;;-0.29;67.74;98191.88;6185343;23;20481;-77
2023/01/31 05:27:45;;;;;;;10.70;5.18;;;;;;;-0.04;68.19;98232.16;6159198;23;20017;-79
2023/01/31 05:30:32;;;;;;;11.32;5.75;;;;;;;-1.38;67.79;98025.66;6185182;23;20409;-78
2023/01/31 05:32:58;;;;;;;11.57;5.10;;;;;;;-0.29;68.03;98182.50;6162493;23;20482;-78
2023/01/31 05:35:34;;;;;;;9.80;5.82;;;;;;;-1.40;67.72;98011.16;6191384;23;20017;-78
2023/01/31 05:38:06;;;;;;;9.05;5.35;;;;;;;-0.28;67.71;98183.34;6117243;23;20301;-78
2023/01/31 05:40:32;;;;;;;13.10;5.95;;;;;;;-0.01;68.57;98221.97;6166217;23;20028;-78
2023/01/31 05:42:59;;;;;;;10.10;4.97;;;;;;;0.04;68.29;98219.44;6117726;23;20109;-77
2023/01/31 05:45:26;;;;;;;10.10;5.15;;;;;;;0.07;67.80;98231.41;6193179;23;20520;-77
2023/01/31 05:47:53;;;;;;;10.82;6.47;;;;;;;0.02;67.55;98210.88;6164277;23;20060;-78
2023/01/31 05:50:20;;;;;;;10.00;5.43;;;;;;;0.08;67.87;98215.22;6165869;23;20040;-77
2023/01/31 05:52:54;;;;;;;9.23;5.03;;;;;;;0.09;68.29;98219.50;6190734;23;20039;-77
2023/01/31 05:55:21;;;;;;;8.75;4.80;;;;;;;0.04;67.74;98211.75;6142570;23;20021;-77
2023/01/31 05:57:47;;;;;;;10.70;6.07;;;;;;;-0.02;68.13;98210.00;6194875;23;20430;-77
2023/01/31 06:00:14;;;;;;;8.98;4.75;;;;;;;0.12;67.21;98229.72;6168565;23;20024;-77
2023/01/31 06:02:41;;;;;;;8.93;4.53;;;;;;;0.10;67.94;98241.66;6140544;23;20027;-78
2023/01/31 06:05:09;;;;;;;10.65;5.60;;;;;;;-0.05;67.84;98220.22;6165613;23;20112;-78
2023/01/31 06:07:35;;;;;;;12.02;5.68;;;;;;;-0.05;67.34;98219.38;6138834;23;20017;-78
2023/01/31 06:10:01;;;;;;;10.35;5.20;;;;;;;0.04;67.40;98227.09;6192200;23;20016;-78
2023/01/31 06:12:30;;;;;;;9.75;4.95;;;;;;;0.17;67.79;98245.13;6191064;23;20088;-78
2023/01/31 06:14:56;;;;;;;9.73;5.32;;;;;;;-0.01;67.37;98210.88;6140647;23;20028;-77
2023/01/31 06:17:25;;;;;;;12.05;5.45;;;;;;;0.16;67.32;98241.69;6192751;23;20023;-78
2023/01/31 06:19:51;;;;;;;9.70;5.10;;;;;;;0.31;67.42;98251.19;6192639;23;20024;-77
2023/01/31 06:22:18;;;;;;;8.85;5.20;;;;;;;0.35;67.54;98254.63;6158645;23;20020;-78
2023/01/31 06:24:45;;;;;;;11.02;5.72;;;;;;;0.32;67.61;98250.34;6161117;23;20100;-78
2023/01/31 06:27:11;;;;;;;11.00;5.07;;;;;;;0.39;67.14;98253.81;6186203;23;20083;-78
2023/01/31 06:29:39;;;;;;;10.23;5.00;;;;;;;0.35;67.13;98247.81;6187498;23;20089;-78
2023/01/31 06:32:06;;;;;;;8.68;5.28;;;;;;;0.25;66.19;98231.53;6187050;23;20458;-79
2023/01/31 06:34:32;;;;;;;10.15;4.50;;;;;;;0.13;67.17;98210.97;6115575;23;20100;-78
2023/01/31 06:36:58;;;;;;;11.07;5.38;;;;;;;0.35;67.04;98257.19;6188499;23;20021;-77
2023/01/31 06:39:25;;;;;;;10.05;5.40;;;;;;;0.21;67.22;98236.63;6166603;23;20044;-77
2023/01/31 06:41:51;;;;;;;10.95;4.85;;;;;;;0.32;67.01;98241.84;6198453;23;20024;-78
2023/01/31 06:44:20;;;;;;;7.53;4.25;;;;;;;0.32;67.21;98242.69;6172386;23;20016;-79
2023/01/31 06:46:46;;;;;;;8.70;5.00;;;;;;;0.38;67.16;98240.16;6127002;23;20021;-78
2023/01/31 06:49:12;;;;;;;9.07;4.60;;;;;;;0.45;67.01;98257.25;6152317;23;20027;-78
2023/01/31 06:51:39;;;;;;;11.60;6.03;;;;;;;0.34;67.29;98237.56;6150949;23;20013;-78
2023/01/31 06:54:05;;;;;;;9.38;5.13;;;;;;;0.56;67.17;98282.94;6178081;23;20044;-79
2023/01/31 06:56:31;;;;;;;9.18;5.10;;;;;;;0.61;66.56;98285.56;6150220;23;20017;-79
2023/01/31 06:58:57;;;;;;;10.38;5.32;;;;;;;0.63;66.80;98295.78;6191340;23;20017;-77
2023/01/31 07:01:25;;;;;;;8.45;5.07;;;;;;;0.60;66.46;98294.91;6167602;23;20009;-77
2023/01/31 07:03:54;;;;;;;10.13;5.10;;;;;;;0.47;66.60;98275.22;6176941;23;20032;-78
2023/01/31 07:06:21;;;;;;;8.88;5.10;;;;;;;0.63;66.75;98283.88;6203644;23;20107;-77
2023/01/31 07:08:47;;;;;;;8.68;5.05;;;;;;;0.62;67.05;98287.28;6174719;23;20017;-79
2023/01/31 07:11:12;;;;;;;9.60;4.90;;;;;;;0.55;66.47;98267.59;6129162;23;20076;-79
2023/01/31 07:13:38;;;;;;;9.07;5.30;;;;;;;0.54;66.76;98283.78;6149898;23;20017;-78
2023/01/31 07:16:05;;;;;;;17.83;5.72;;;;;;;0.53;66.71;98259.03;6201144;23;20021;-77
2023/01/31 07:18:31;;;;;;;10.38;5.75;;;;;;;0.75;66.14;98303.56;6198505;23;20028;-77
2023/01/31 07:20:57;;;;;;;8.57;4.75;;;;;;;0.74;66.84;98305.25;6147729;23;20021;-78
2023/01/31 07:23:26;;;;;;;10.85;5.47;;;;;;;0.72;66.42;98306.09;6171813;23;20017;-78
2023/01/31 07:25:53;;;;;;;8.85;5.43;;;;;;;0.63;66.69;98298.34;6172101;23;20017;-78
2023/01/31 07:28:23;;;;;;;8.60;4.80;;;;;;;0.32;66.66;98255.47;6199219;23;20071;-79
2023/01/31 07:30:53;;;;;;;9.48;5.20;;;;;;;0.54;66.18;98306.81;6148130;23;20068;-78
2023/01/31 07:33:20;;;;;;;10.43;5.40;;;;;;;0.43;66.64;98288.81;6196230;23;20047;-78
2023/01/31 07:35:46;;;;;;;11.18;5.60;;;;;;;0.63;66.32;98327.38;6171060;23;20056;-79
2023/01/31 07:38:12;;;;;;;8.70;5.10;;;;;;;0.62;66.24;98310.31;6197165;23;20021;-77
2023/01/31 07:40:39;;;;;;;8.88;4.88;;;;;;;0.66;66.09;98316.31;6172555;23;20020;-80
2023/01/31 07:43:05;;;;;;;10.15;5.28;;;;;;;0.65;66.17;98302.66;6176226;23;20104;-78
2023/01/31 07:45:33;;;;;;;9.48;4.95;;;;;;;0.84;66.52;98315.59;6124815;23;20017;-78
2023/01/31 07:47:59;;;;;;;9.77;5.55;;;;;;;0.85;66.29;98325.81;6168767;23;20068;-79
2023/01/31 07:50:26;;;;;;;9.10;5.07;;;;;;;0.90;66.81;98321.59;6171180;23;20013;-78
2023/01/31 07:52:52;;;;;;;10.50;5.45;;;;;;;0.86;65.85;98294.25;6143345;23;20159;-77
2023/01/31 07:55:18;;;;;;;6.45;4.38;;;;;;;0.92;66.65;98320.75;6166122;23;20075;-77
2023/01/31 07:57:44;;;;;;;9.93;5.38;;;;;;;0.96;66.37;98323.31;6165183;23;20036;-79
2023/01/31 08:03:31;;;;;;;9.77;5.70;;;;;;;1.18;66.62;98336.25;6139842;23;20720;-79
2023/01/31 08:05:45;;;;;;;9.65;5.45;;;;;;;1.15;66.13;98344.81;6143188;23;20099;-78
2023/01/31 08:08:11;;;;;;;9.52;5.20;;;;;;;1.18;65.86;98331.13;6167324;23;20013;-78
2023/01/31 08:10:38;;;;;;;9.18;5.45;;;;;;;1.22;65.47;98329.44;6144241;23;20020;-78
2023/01/31 08:13:05;;;;;;;10.93;5.65;;;;;;;1.31;65.69;98356.00;6166973;23;20016;-78
2023/01/31 08:15:32;;;;;;;10.90;5.68;;;;;;;1.38;65.99;98350.88;6193023;23;20160;-79
2023/01/31 08:17:58;;;;;;;8.43;5.35;;;;;;;1.35;65.81;98367.97;6192792;23;20021;-78
2023/01/31 08:20:24;;;;;;;9.80;5.35;;;;;;;1.02;65.68;98300.31;6142692;23;20021;-78
2023/01/31 08:22:50;;;;;;;9.40;5.57;;;;;;;1.42;65.77;98344.94;6141269;23;20103;-80
2023/01/31 08:25:16;;;;;;;9.32;5.50;;;;;;;1.57;66.13;98355.25;6193260;23;20096;-78
2023/01/31 08:27:42;;;;;;;8.90;5.45;;;;;;;1.60;65.65;98354.41;6192923;23;20024;-78
2023/01/31 08:30:11;;;;;;;9.80;4.95;;;;;;;1.58;65.43;98353.56;6165920;23;20017;-79
2023/01/31 08:32:37;;;;;;;11.95;6.20;;;;;;;1.46;65.55;98351.78;6164702;23;20025;-79
2023/01/31 08:35:03;;;;;;;9.88;5.60;;;;;;;1.26;65.64;98313.22;6171890;23;20017;-78
2023/01/31 08:37:31;;;;;;;11.27;4.93;;;;;;;1.17;65.21;98294.41;6202011;23;20020;-79
2023/01/31 08:39:57;;;;;;;9.43;5.10;;;;;;;1.53;65.20;98339.84;6149852;23;20422;-78
2023/01/31 08:42:24;;;;;;;9.77;5.40;;;;;;;1.53;65.61;98330.47;6202163;23;20013;-77
2023/01/31 08:44:50;;;;;;;9.32;5.80;;;;;;;1.72;65.00;98348.50;6174861;23;20044;-78
2023/01/31 08:47:17;;;;;;;12.63;6.03;;;;;;;1.77;65.16;98362.16;6152060;23;20459;-79
2023/01/31 08:49:43;;;;;;;12.48;5.93;;;;;;;1.61;64.56;98317.66;6194285;23;20012;-78
2023/01/31 08:52:09;;;;;;;11.32;5.75;;;;;;;1.85;65.17;98359.66;6192749;23;20072;-77
2023/01/31 08:54:35;;;;;;;10.70;5.88;;;;;;;1.86;64.73;98361.38;6140015;23;20021;-78
2023/01/31 08:57:01;;;;;;;8.70;5.63;;;;;;;1.59;64.58;98312.53;6159821;23;20017;-79
2023/01/31 08:59:28;;;;;;;11.40;5.28;;;;;;;1.75;64.75;98348.50;6159956;23;20024;-79
2023/01/31 09:01:54;;;;;;;9.68;5.28;;;;;;;1.73;64.23;98351.03;6160449;23;20027;-78
2023/01/31 09:04:20;;;;;;;10.13;5.68;;;;;;;1.67;64.94;98357.88;6161585;23;20021;-78
2023/01/31 09:06:46;;;;;;;9.18;5.53;;;;;;;1.65;64.71;98357.88;6186992;23;20355;-78
2023/01/31 09:09:15;;;;;;;10.00;5.53;;;;;;;1.73;64.37;98371.56;6192934;23;20021;-79
2023/01/31 09:11:42;;;;;;;11.50;5.82;;;;;;;1.63;65.18;98341.63;6171401;23;20052;-78
2023/01/31 09:14:08;;;;;;;9.85;5.32;;;;;;;1.82;64.56;98363.03;6191472;23;20021;-78
2023/01/31 09:16:34;;;;;;;10.10;5.38;;;;;;;1.67;64.29;98330.50;6164024;23;20017;-79
2023/01/31 09:19:00;;;;;;;10.55;5.60;;;;;;;1.67;64.36;98334.78;6161159;23;20024;-80
2023/01/31 09:21:26;;;;;;;11.80;6.13;;;;;;;1.83;64.51;98369.88;6162945;23;20463;-78
2023/01/31 09:23:58;;;;;;;10.02;5.20;;;;;;;1.49;64.47;98295.41;6113233;23;20021;-77
2023/01/31 09:26:24;;;;;;;9.15;5.65;;;;;;;1.93;64.56;98356.25;6137525;23;20379;-78
2023/01/31 09:28:52;;;;;;;10.02;5.65;;;;;;;1.75;64.18;98326.25;6188956;23;20020;-78
2023/01/31 09:31:19;;;;;;;10.63;5.90;;;;;;;1.65;64.48;98319.41;6137075;23;20021;-80
2023/01/31 09:33:46;;;;;;;12.13;6.40;;;;;;;1.54;64.05;98292.84;6171551;23;20016;-79
2023/01/31 09:36:15;;;;;;;12.73;5.97;;;;;;;1.97;64.55;98359.66;6207722;23;20004;-79
2023/01/31 09:38:41;;;;;;;10.25;5.82;;;;;;;1.97;63.94;98359.66;6189997;23;20017;-78
2023/01/31 09:41:29;;;;;;;12.05;6.65;;;;;;;1.67;64.59;98319.41;6187138;23;20107;-79
2023/01/31 09:44:21;;;;;;;11.07;6.35;;;;;;;1.90;64.25;98368.19;6157712;23;20017;-77
2023/01/31 09:47:04;;;;;;;13.38;5.95;;;;;;;1.86;64.68;98339.13;6184655;23;20020;-80
2023/01/31 09:49:38;;;;;;;9.88;5.03;;;;;;;2.08;63.66;98362.25;6161423;23;20412;-77
2023/01/31 09:52:11;;;;;;;10.23;5.95;;;;;;;1.90;63.87;98327.16;6158211;23;20040;-78
2023/01/31 09:54:44;;;;;;;9.98;5.38;;;;;;;2.09;63.54;98369.97;6110835;23;20081;-78
2023/01/31 09:57:11;;;;;;;10.13;5.63;;;;;;;2.09;63.87;98374.25;6158965;23;20455;-81
2023/01/31 10:00:03;;;;;;;11.30;5.55;;;;;;;2.03;63.86;98372.53;6188274;23;20077;-80
2023/01/31 10:02:52;;;;;;;12.30;5.28;;;;;;;1.99;63.83;98363.09;6140799;23;20107;-80
2023/01/31 10:05:35;;;;;;;10.95;5.55;;;;;;;1.95;63.61;98372.50;6143635;23;20063;-79
2023/01/31 10:08:26;;;;;;;8.68;5.60;;;;;;;1.85;63.25;98344.25;6166198;23;20336;-79
2023/01/31 10:10:56;;;;;;;10.23;5.55;;;;;;;2.02;63.96;98373.38;6195214;23;20021;-77
2023/01/31 10:13:53;;;;;;;10.63;5.68;;;;;;;1.90;63.45;98347.66;6118636;23;20024;-78
2023/01/31 10:16:44;;;;;;;9.35;5.32;;;;;;;2.08;64.00;98369.97;6163316;23;20095;-79
2023/01/31 10:19:27;;;;;;;11.10;5.80;;;;;;;2.13;63.64;98360.56;6134143;23;20116;-78
2023/01/31 10:22:01;;;;;;;12.18;6.10;;;;;;;2.07;63.88;98351.16;6163650;23;20252;-77
2023/01/31 10:24:54;;;;;;;9.52;5.60;;;;;;;2.14;63.24;98375.13;6166673;23;20017;-79
2023/01/31 10:27:32;;;;;;;9.68;5.45;;;;;;;2.09;63.30;98375.13;6140426;23;20055;-80
2023/01/31 10:30:03;;;;;;;10.32;5.72;;;;;;;2.07;63.67;98360.56;6166543;23;20013;-80
2023/01/31 10:32:36;;;;;;;9.65;5.72;;;;;;;2.13;63.85;98357.13;6142121;23;20043;-79
2023/01/31 10:35:12;;;;;;;10.52;5.40;;;;;;;2.04;63.26;98356.28;6140774;23;20139;-80
2023/01/31 10:37:45;;;;;;;9.57;5.63;;;;;;;2.11;63.76;98362.28;6142903;23;20021;-79
2023/01/31 10:40:22;;;;;;;11.82;6.63;;;;;;;2.31;63.82;98389.69;6190573;23;20013;-78
2023/01/31 10:42:56;;;;;;;11.02;5.47;;;;;;;2.21;63.15;98376.81;6141834;23;20044;-79
2023/01/31 10:45:29;;;;;;;10.32;5.47;;;;;;;2.33;63.16;98391.41;6192822;23;20024;-78
2023/01/31 10:48:12;;;;;;;10.55;5.95;;;;;;;2.32;63.72;98388.84;6194541;23;20080;-79
2023/01/31 10:50:44;;;;;;;10.43;5.65;;;;;;;2.32;63.47;98393.97;6194344;23;20009;-79
2023/01/31 10:53:43;;;;;;;11.85;6.43;;;;;;;2.32;63.73;98391.41;6167002;23;20085;-78
2023/01/31 10:56:30;;;;;;;11.45;5.60;;;;;;;2.31;63.29;98389.69;6101938;23;20016;-79
2023/01/31 10:58:58;;;;;;;9.13;5.22;;;;;;;2.07;63.01;98371.69;6123767;23;20009;-79
2023/01/31 11:01:24;;;;;;;13.35;5.78;;;;;;;2.22;63.71;98393.09;6169317;23;20019;-80
2023/01/31 11:03:53;;;;;;;12.73;6.22;;;;;;;2.31;63.77;98398.28;6143414;23;20025;-79
2023/01/31 11:06:20;;;;;;;9.23;5.22;;;;;;;2.28;63.50;98393.13;6144862;23;20016;-77
2023/01/31 11:08:57;;;;;;;11.43;5.78;;;;;;;1.87;63.23;98332.28;6173466;23;20018;-79
2023/01/31 11:11:25;;;;;;;10.32;5.75;;;;;;;2.04;63.25;98383.63;6195667;23;20013;-78
2023/01/31 11:14:17;;;;;;;9.30;5.80;;;;;;;2.07;63.91;98391.34;6144491;23;20076;-78
2023/01/31 11:16:44;;;;;;;9.60;5.55;;;;;;;1.59;63.43;98338.16;6122132;23;20017;-78
2023/01/31 11:19:24;;;;;;;12.68;6.22;;;;;;;2.01;63.43;98399.88;6170092;23;20020;-79
2023/01/31 11:21:52;;;;;;;11.00;5.90;;;;;;;1.89;63.87;98372.47;6117758;23;20021;-80
2023/01/31 11:24:25;;;;;;;14.25;6.22;;;;;;;2.04;63.70;98391.34;6144385;23;20017;-79
2023/01/31 11:26:57;;;;;;;10.82;5.75;;;;;;;1.98;63.81;98369.09;6186955;23;20020;-80
2023/01/31 11:29:32;;;;;;;13.63;6.38;;;;;;;1.73;63.61;98327.97;6186479;23;20016;-80
2023/01/31 11:32:02;;;;;;;15.63;6.90;;;;;;;1.79;64.38;98325.41;6138828;23;20024;-80
2023/01/31 11:34:29;;;;;;;11.50;6.72;;;;;;;2.09;63.89;98385.38;6172668;23;20017;-80
2023/01/31 11:37:16;;;;;;;10.07;5.80;;;;;;;2.04;64.11;98379.38;6148361;23;20072;-79
2023/01/31 11:40:13;;;;;;;12.07;6.22;;;;;;;2.04;63.90;98397.34;6187277;23;20024;-78
2023/01/31 11:42:51;;;;;;;9.98;5.63;;;;;;;1.86;64.08;98376.75;6125944;23;20083;-79
2023/01/31 11:45:22;;;;;;;9.90;5.97;;;;;;;2.03;63.82;98400.75;6159340;23;20013;-79
2023/01/31 11:47:57;;;;;;;11.55;6.20;;;;;;;1.89;63.82;98384.44;6186428;23;20009;-79
2023/01/31 11:50:42;;;;;;;10.32;6.22;;;;;;;1.87;64.11;98401.56;6160269;23;20040;-79
2023/01/31 11:53:28;;;;;;;10.82;5.88;;;;;;;1.83;63.82;98405.81;6188151;23;20013;-80
2023/01/31 11:56:11;;;;;;;12.38;6.30;;;;;;;1.89;64.21;98422.91;6160597;23;20036;-80
2023/01/31 11:58:40;;;;;;;13.98;6.90;;;;;;;1.39;63.99;98345.78;6187145;23;20017;-80
2023/01/31 12:01:11;;;;;;;14.18;6.55;;;;;;;1.87;64.58;98432.34;6134963;23;20068;-78
2023/01/31 12:03:38;;;;;;;11.40;6.10;;;;;;;1.86;64.31;98435.75;6159451;23;20391;-78
2023/01/31 12:06:09;;;;;;;9.57;5.57;;;;;;;1.71;63.80;98416.88;6135128;23;20024;-79